Flight Track Log - Related Links

Times and Time Zones

All times are in EDT time to prevent confusion due to time zone crossing. See the N153PB flight status page for this flight to view local times or setup timezone preferences in your user account.

Time Position Orientation Groundspeed Altitude Reporting Facility
EDT Latitude Longitude Course Direction KTS MPH feet Rate Location/Type
Sat 09:15:14 PM 40.0533 -76.3331 218° Southwest 189 217 2,900  Level New York Center
Sat 09:16:13 PM 40.0097 -76.3703 213° Southwest 181 208 4,300 1,400 Climbing New York Center
Sat 09:17:14 PM 39.9769 -76.4028 217° Southwest 181 208 5,700 1,377 Climbing New York Center
Sat 09:18:15 PM 39.9356 -76.4375 213° Southwest 181 208 7,100 1,513 Climbing New York Center
Sat 09:19:00 PM 39.8500 -76.5035 270° West  Level FlightAware Approximate
Sat 09:19:13 PM 39.8939 -76.4800 218° Southwest 181 208 8,700  Level New York Center
Sat 09:20:00 PM 39.8022 -76.5478 218° Southwest  Level FlightAware Approximate
Sat 09:20:14 PM 39.8547 -76.5147 214° Southwest 186 214 10,000  Level New York Center
Sat 09:21:13 PM 39.8156 -76.5519 216° Southwest 186 214 11,600 1,462 Climbing New York Center
Sat 09:22:13 PM 39.7739 -76.5892 214° Southwest 186 214 12,900 1,426 Climbing New York Center
Sat 09:23:15 PM 39.7386 -76.6322 223° Southwest 186 214 14,500 1,339 Climbing New York Center
Sat 09:24:14 PM 39.7047 -76.6806 228° Southwest 186 214 15,600 1,261 Climbing New York Center
Sat 09:25:14 PM 39.6689 -76.7317 228° Southwest 191 220 17,000 1,240 Climbing New York Center
Sat 09:26:15 PM 39.6331 -76.7825 228° Southwest 191 220 18,100 1,154 Climbing New York Center
Sat 09:27:24 PM 39.5928 -76.8356 225° Southwest 196 226 19,500 1,108 Climbing Washington Center
Sat 09:28:25 PM 39.5589 -76.8836 228° Southwest 186 214 20,500 950 Climbing Washington Center
Sat 09:29:24 PM 39.5228 -76.9367 229° Southwest 186 214 21,400 958 Climbing Washington Center
Sat 09:30:24 PM 39.4867 -76.9872 227° Southwest 186 214 22,400 744 Climbing Washington Center
Sat 09:31:25 PM 39.4447 -77.0292 218° Southwest 192 221 22,900 250 Climbing Washington Center
Sat 09:32:24 PM 39.3961 -77.0819 220° Southwest 214 246 22,900 298 Level Washington Center
Sat 09:33:26 PM 39.3453 -77.1347 219° Southwest 227 261 23,500 793 Climbing Washington Center
Sat 09:34:25 PM 39.3011 -77.1819 220° Southwest 227 261 24,500 800 Climbing Washington Center
Sat 09:35:26 PM 39.2567 -77.2267 218° Southwest 216 249 25,100 706 Climbing Washington Center
Sat 09:36:24 PM 39.2144 -77.2711 219° Southwest 210 242 25,900 454 Climbing Washington Center
Sat 09:37:25 PM 39.1700 -77.3183 219° Southwest 205 236 26,000  Climbing Washington Center
Sat 09:38:26 PM 39.1233 -77.3681 220° Southwest 217 250 25,900 -50 Descending Washington Center
Sat 09:39:26 PM 39.0703 -77.4231 219° Southwest 229 264 25,900  Level Washington Center
Sat 09:40:24 PM 39.0194 -77.4778 220° Southwest 234 269 25,900  Level Washington Center
Sat 09:41:25 PM 38.9667 -77.5300 218° Southwest 239 275 25,900  Level Washington Center
Sat 09:42:25 PM 38.9092 -77.5925 220° Southwest 239 275 25,900  Level Washington Center
Sat 09:43:24 PM 38.8625 -77.6392 218° Southwest 239 275 25,900 50 Level Washington Center
Sat 09:44:25 PM 38.8094 -77.7069 225° Southwest 239 275 26,000  Climbing Washington Center
Sat 09:45:24 PM 38.7725 -77.7778 236° Southwest 245 282 25,900 -50 Descending Washington Center
Sat 09:46:24 PM 38.7297 -77.8456 231° Southwest 250 288 25,900  Level Washington Center
Sat 09:47:24 PM 38.6908 -77.9111 233° Southwest 250 288 25,900  Level Washington Center
Sat 09:48:25 PM 38.6500 -77.9761 231° Southwest 250 288 25,900  Level Washington Center
Sat 09:49:25 PM 38.6092 -78.0386 230° Southwest 250 288 25,900  Level Washington Center
Sat 09:50:26 PM 38.5681 -78.1064 232° Southwest 250 288 25,900  Level Washington Center
Sat 09:51:25 PM 38.5272 -78.1686 230° Southwest 245 282 25,900  Level Washington Center
Sat 09:52:24 PM 38.4861 -78.2361 232° Southwest 245 282 25,900  Level Washington Center
Sat 09:53:25 PM 38.4450 -78.3008 231° Southwest 245 282 25,900  Level Washington Center
Sat 09:54:26 PM 38.4019 -78.3656 230° Southwest 245 282 25,900  Level Washington Center
Sat 09:55:26 PM 38.3606 -78.4331 232° Southwest 245 282 25,900  Level Washington Center
Sat 09:56:24 PM 38.3194 -78.4975 231° Southwest 245 282 25,900  Level Washington Center
Sat 09:57:25 PM 38.2761 -78.5619 229° Southwest 245 282 25,900  Level Washington Center
Sat 09:58:26 PM 38.2369 -78.6319 235° Southwest 245 282 25,900  Level Washington Center
Sat 09:59:25 PM 38.1936 -78.6961 229° Southwest 245 282 25,900  Level Washington Center
Sat 10:00:24 PM 38.1567 -78.7553 232° Southwest 240 276 25,900  Level Washington Center
Sat 10:01:24 PM 38.1153 -78.8169 230° Southwest 240 276 25,900  Level Washington Center
Sat 10:02:24 PM 38.0717 -78.8861 231° Southwest 240 276 25,900  Level Washington Center
Sat 10:03:25 PM 38.0261 -78.9553 230° Southwest 240 276 25,900 49 Level Washington Center
Sat 10:04:26 PM 37.9847 -79.0167 229° Southwest 240 276 26,000  Climbing Washington Center
Sat 10:05:24 PM 37.9411 -79.0833 230° Southwest 240 276 25,900  Descending Washington Center
Sat 10:06:26 PM 37.9017 -79.1447 231° Southwest 240 276 26,000 50 Climbing Washington Center
Sat 10:07:24 PM 37.8644 -79.2008 230° Southwest 240 276 26,000 -50 Level Washington Center
Sat 10:08:26 PM 37.8208 -79.2669 230° Southwest 240 276 25,900  Descending Washington Center
Sat 10:09:24 PM 37.7792 -79.3281 229° Southwest 240 276 26,000 51 Climbing Washington Center
Sat 10:10:24 PM 37.7353 -79.3994 232° Southwest 240 276 26,000 -50 Level Washington Center
Sat 10:11:24 PM 37.6894 -79.4628 228° Southwest 246 283 25,900  Descending Washington Center
Sat 10:12:25 PM 37.6503 -79.5183 228° Southwest 251 289 26,000 50 Climbing Washington Center
Sat 10:13:24 PM 37.6039 -79.5894 231° Southwest 251 289 26,000  Level Washington Center
Sat 10:14:25 PM 37.5644 -79.6503 231° Southwest 251 289 26,000  Level Washington Center
Sat 10:15:24 PM 37.5161 -79.7208 229° Southwest 251 289 26,000  Level Washington Center
Sat 10:16:26 PM 37.4742 -79.7842 230° Southwest 251 289 26,000  Level Washington Center
Sat 10:17:24 PM 37.4303 -79.8522 231° Southwest 251 289 26,000  Level Washington Center
Sat 10:19:08 PM 37.3542 -79.9636 229° Southwest 247 284 26,000  Level Atlanta Center
Sat 10:20:08 PM 37.3144 -80.0178 227° Southwest 242 278 26,000  Level Atlanta Center
Sat 10:21:08 PM 37.2708 -80.0853 231° Southwest 247 284 26,000  Level Atlanta Center
Sat 10:22:08 PM 37.2269 -80.1475 228° Southwest 247 284 26,000  Level Atlanta Center
Sat 10:23:08 PM 37.1789 -80.2175 229° Southwest 242 278 26,000  Level Atlanta Center
Sat 10:24:08 PM 37.1372 -80.2819 231° Southwest 242 278 26,000  Level Atlanta Center
Sat 10:25:08 PM 37.0914 -80.3467 228° Southwest 242 278 26,000  Level Atlanta Center
Sat 10:26:08 PM 37.0472 -80.4111 229° Southwest 242 278 26,000  Level Atlanta Center
Sat 10:27:08 PM 37.0072 -80.4700 230° Southwest 242 278 26,000  Level Atlanta Center
Sat 10:28:08 PM 36.9653 -80.5317 230° Southwest 242 278 26,000  Level Atlanta Center
Sat 10:29:08 PM 36.9192 -80.5961 228° Southwest 242 278 26,000  Level Atlanta Center
Sat 10:30:08 PM 36.8711 -80.6683 230° Southwest 242 278 26,000  Level Atlanta Center
Sat 10:31:08 PM 36.8269 -80.7322 229° Southwest 242 278 26,000  Level Atlanta Center
Sat 10:32:08 PM 36.7850 -80.7936 230° Southwest 242 278 26,000  Level Atlanta Center
Sat 10:33:08 PM 36.7406 -80.8550 228° Southwest 236 272 26,000  Level Atlanta Center
Sat 10:34:08 PM 36.6964 -80.9217 230° Southwest 241 277 26,000  Level Atlanta Center
Sat 10:35:08 PM 36.6503 -80.9881 229° Southwest 251 289 26,000  Level Atlanta Center
Sat 10:36:08 PM 36.6081 -81.0544 232° Southwest 251 289 26,000  Level Atlanta Center
Sat 10:37:08 PM 36.5617 -81.1181 228° Southwest 244 281 26,000  Level Atlanta Center
Sat 10:38:08 PM 36.5192 -81.1817 230° Southwest 244 281 26,000  Level Atlanta Center
Sat 10:39:08 PM 36.4728 -81.2453 228° Southwest 239 275 26,000  Level Atlanta Center
Sat 10:40:08 PM 36.4283 -81.3139 231° Southwest 239 275 26,000  Level Atlanta Center
Sat 10:41:08 PM 36.3839 -81.3747 228° Southwest 239 275 26,000  Level Atlanta Center
Sat 10:42:08 PM 36.3394 -81.4406 230° Southwest 244 281 26,000  Level Atlanta Center
Sat 10:43:08 PM 36.2989 -81.4961 228° Southwest 244 281 26,000  Level Atlanta Center
Sat 10:44:08 PM 36.2522 -81.5644 230° Southwest 242 278 26,000  Level Atlanta Center
Sat 10:45:08 PM 36.2097 -81.6225 228° Southwest 242 278 26,000  Level Atlanta Center
Sat 10:46:08 PM 36.1650 -81.6856 229° Southwest 242 278 26,000  Level Atlanta Center
Sat 10:47:08 PM 36.1203 -81.7483 229° Southwest 242 278 26,000  Level Atlanta Center
Sat 10:48:08 PM 36.0756 -81.8139 230° Southwest 242 278 26,000  Level Atlanta Center
Sat 10:49:08 PM 36.0308 -81.8769 229° Southwest 242 278 26,000  Level Atlanta Center
Sat 10:50:08 PM 35.9839 -81.9397 227° Southwest 242 278 26,000  Level Atlanta Center
Sat 10:51:08 PM 35.9372 -82.0100 231° Southwest 242 278 26,000  Level Atlanta Center
Sat 10:52:08 PM 35.8925 -82.0753 230° Southwest 242 278 26,000  Level Atlanta Center
Sat 10:53:08 PM 35.8433 -82.1381 226° Southwest 247 284 26,000  Level Atlanta Center
Sat 10:54:08 PM 35.7983 -82.2006 228° Southwest 247 284 26,000  Level Atlanta Center
Sat 10:55:08 PM 35.7514 -82.2628 227° Southwest 252 290 26,000  Level Atlanta Center
Sat 10:56:08 PM 35.7044 -82.3331 231° Southwest 252 290 26,000  Level Atlanta Center
Sat 10:57:08 PM 35.6614 -82.3928 228° Southwest 252 290 26,000  Level Atlanta Center
Sat 10:58:08 PM 35.6119 -82.4550 226° Southwest 252 290 26,000 -450 Level Atlanta Center
Sat 10:59:08 PM 35.5692 -82.5222 232° Southwest 252 290 25,100 -1,000 Descending Atlanta Center
Sat 11:00:08 PM 35.5219 -82.5792 224° Southwest 258 297 24,000 -600 Descending Atlanta Center
Sat 11:01:08 PM 35.4725 -82.6439 227° Southwest 258 297 23,900 -50 Descending Atlanta Center
Sat 11:02:08 PM 35.4294 -82.7058 230° Southwest 258 297 23,900 -450 Level Atlanta Center
Sat 11:03:08 PM 35.3819 -82.7675 227° Southwest 260 299 23,000 -500 Descending Atlanta Center
Sat 11:04:08 PM 35.3286 -82.8422 229° Southwest 271 312 22,900 -50 Descending Atlanta Center
Sat 11:05:08 PM 35.2792 -82.9014 224° Southwest 264 304 22,900  Level Atlanta Center
Sat 11:06:08 PM 35.2317 -82.9606 226° Southwest 251 289 22,900  Level Atlanta Center
Sat 11:07:08 PM 35.1819 -83.0197 224° Southwest 251 289 22,900  Level Atlanta Center
Sat 11:08:08 PM 35.1344 -83.0789 226° Southwest 251 289 22,900  Level Atlanta Center
Sat 11:09:08 PM 35.0869 -83.1378 225° Southwest 251 289 22,900  Level Atlanta Center
Sat 11:10:08 PM 35.0394 -83.1992 227° Southwest 251 289 22,900  Level Atlanta Center
Sat 11:11:08 PM 34.9856 -83.2556 221° Southwest 251 289 22,900  Level Atlanta Center
Sat 11:12:08 PM 34.9294 -83.3092 218° Southwest 251 289 22,900  Level Atlanta Center
Sat 11:13:08 PM 34.8733 -83.3603 217° Southwest 256 295 22,900 -150 Level Atlanta Center
Sat 11:14:08 PM 34.8133 -83.4189 219° Southwest 264 304 22,600 -850 Descending Atlanta Center
Sat 11:15:08 PM 34.7508 -83.4800 219° Southwest 272 313 21,200 -1,450 Descending Atlanta Center
Sat 11:16:08 PM 34.6928 -83.5361 218° Southwest 272 313 19,700 -1,500 Descending Atlanta Center
Sat 11:17:08 PM 34.6386 -83.5844 216° Southwest 264 304 18,200 -1,350 Descending Atlanta Center
Sat 11:18:08 PM 34.5825 -83.6350 217° Southwest 264 304 17,000 -1,400 Descending Atlanta Center
Sat 11:19:08 PM 34.5264 -83.6883 218° Southwest 258 297 15,400 -1,550 Descending Atlanta Center
Sat 11:20:08 PM 34.4722 -83.7439 220° Southwest 258 297 13,900 -1,350 Descending Atlanta Center
Sat 11:21:08 PM 34.4222 -83.7869 215° Southwest 253 291 12,700 -1,350 Descending Atlanta Center
Sat 11:22:08 PM 34.3700 -83.8375 219° Southwest 253 291 11,200 -1,500 Descending Atlanta Center
Sat 11:23:08 PM 34.3181 -83.8878 219° Southwest 253 291 9,700 -1,450 Descending Atlanta Center
Sat 11:24:08 PM 34.2639 -83.9383 218° Southwest 247 284 8,300 -850 Descending Atlanta Center
Sat 11:25:08 PM 34.2139 -83.9861 218° Southwest 247 284 8,000 -500 Descending Atlanta Center
Sat 11:26:08 PM 34.1617 -84.0364 219° Southwest 240 276 7,300 -1,115 Descending Atlanta Center
Sat 11:27:01 PM 34.1167 -84.0833 221° Southwest 249 287 5,900 -1,570 Descending Atlanta TRACON
Sat 11:27:55 PM 34.0833 -84.1333 231° Southwest 226 260 4,500 -1,400 Descending Atlanta TRACON
Sat 11:29:01 PM 34.0667 -84.2000 253° West 182 209 3,100 -714 Descending Atlanta TRACON
Sat 11:30:01 PM 34.0333 -84.2333 220° Southwest 159 183 3,000  Descending Atlanta TRACON
Sat 11:31:01 PM 33.9833 -84.2500 195° South 133 153 3,100 -200 Climbing Atlanta TRACON
Sat 11:32:01 PM 33.9500 -84.2667 203° Southwest 125 144 2,600 -550 Descending Atlanta TRACON
Sat 11:33:01 PM 33.9333 -84.2833 220° Southwest 124 143 2,000 -600 Descending Atlanta TRACON
Sat 11:35:00 PM 33.8756 -84.3020 209° Southwest  Level Estimated
Sat 11:42:00 PM 33.8756 -84.3020 209° Southwest  Level Estimated

Login

Don't have an account? Register now (free) for customized features, flight alerts, and more!